EGNCEGGP

Guest
Details From EGNC - Carlisle
To EGGP - Liverpool
Flight Number -
Tags generated
Created
Modified
Stats Distance 96 nm / 179 km
Max Altitude 8,600 ft / 2,621 m
Waypoints 3
Social Downloads 0
Likes 0
Share VATSIM

Download

Looking for another format? Having issues loading an existing format? Contact us
Advertisement - Login to hide

Notes

Basic altitude profile: - Ascent Rate: 2500ft/min - Ascent Speed: 250kts - Cruise Altitude: 35000ft - Cruise Speed: 420kts - Descent Rate: 1500ft/min - Descent Speed: 250kts Options: - Use NATs: yes - Use PACOTS: yes - Use low airways: yes - Use high airways: no

Route

EGNC DCS47 EGGP

ID Type Via Altitude Latitude Longitude Leg Dist Tot Dist Heading (true) Name
O EGNC APT - 0 ft / 0 m 54.93832˚ -2.81013˚ - 0 nm - Carlisle
DCS47 FIX - 8,600 ft / 2,621 m 54.00278˚ -2.80889˚ 56 nm 56 nm 180° / 180° -
O EGGP APT - 0 ft / 0 m 53.33363˚ -2.84977˚ 40 nm 96 nm 182° / 182° Liverpool

Altitude Profile

Advertisement - Login to hide

EGNC

Details ICAO EGNC (CAX)
Name Carlisle
Region United Kingdom
Timezone Europe/London (UTC+1.0)
Stats Elevation 190 ft / 58 m (AMSL)
Location 54.938323° -2.810132°
Runways 2
Magnetic Variation 1.835° W

METAR

EGNC 231420Z 06014KT 020V100 9999 FEW020 15/09 Q1026

Decode

TAF

Not found

Departure Runways

ID Width Length Bearing (true) Bearing (mag) Surface Threshold Offset Overrun Length
01 75 ft / 23 m 3,045 ft / 928 m 1.13° 2.97° Asphalt 0 ft / 0 m 0 ft / 0 m
07 98 ft / 30 m 5,969 ft / 1,819 m 59.39° 61.23° Asphalt 1,493 ft / 455 m 0 ft / 0 m
19 75 ft / 23 m 3,045 ft / 928 m 181.13° 182.97° Asphalt 420 ft / 128 m 0 ft / 0 m
25 98 ft / 30 m 5,969 ft / 1,819 m 239.41° 241.25° Asphalt 781 ft / 238 m 0 ft / 0 m

EGGP

Details ICAO EGGP (LPL)
Name Liverpool
Region United Kingdom
Timezone Europe/London (UTC+1.0)
Stats Elevation 80 ft / 24 m (AMSL)
Location 53.333632° -2.849769°
Runways 1
Magnetic Variation 1.605° W

METAR

EGGP 231450Z 12006KT 070V160 CAVOK 21/10 Q1025

Decode

TAF

TAF TAF EGGP 231102Z 2312/2412 09007KT CAVOK PROB30 TEMPO 2409/2412 8000 SHRA

Decode

Destination Runways

ID Width Length Bearing (true) Bearing (mag) Surface Threshold Offset Overrun Length
09 151 ft / 46 m 7,466 ft / 2,276 m 85.59° 87.20° Asphalt 180 ft / 55 m 0 ft / 0 m
27 151 ft / 46 m 7,466 ft / 2,276 m 265.61° 267.22° Asphalt 0 ft / 0 m 0 ft / 0 m

Approach Navaids

Runway Type Ident Frequency Range Bearing (true) Bearing (mag) Slope Elevation
09 Localiser ILVR 111.75 MHz 18 nm / 33 km 85.61° 87.22° - 77 ft / 23 m (AMSL)
09 Glidescope ILVR 111.75 MHz 10 nm / 19 km 85.60° 87.21° 3.00° 80 ft / 24 m (AMSL)
09 DME ILVR 111.75 MHz 18 nm / 33 km - - - 88 ft / 27 m (AMSL)
27 Localiser ILQ 111.75 MHz 18 nm / 33 km 265.05° 266.65° - 55 ft / 17 m (AMSL)
27 Glidescope ILQ 111.75 MHz 10 nm / 19 km 265.60° 267.21° 3.00° 80 ft / 24 m (AMSL)
27 DME ILQ 111.75 MHz 18 nm / 33 km - - - 88 ft / 27 m (AMSL)